sensor_id;sensor_type;location;lat;lon;timestamp;temperature;humidity
2899;DHT22;1459;50.864;6.438;2022-08-19T00:00:16;18.00;99.90
2899;DHT22;1459;50.864;6.438;2022-08-19T00:02:46;18.10;99.90
2899;DHT22;1459;50.864;6.438;2022-08-19T00:05:14;18.00;99.90
2899;DHT22;1459;50.864;6.438;2022-08-19T00:07:42;18.00;99.90
2899;DHT22;1459;50.864;6.438;2022-08-19T00:10:13;17.90;99.90
2899;DHT22;1459;50.864;6.438;2022-08-19T00:12:40;17.80;99.90
2899;DHT22;1459;50.864;6.438;2022-08-19T00:15:11;17.80;99.90
2899;DHT22;1459;50.864;6.438;2022-08-19T00:17:38;17.80;99.90
2899;DHT22;1459;50.864;6.438;2022-08-19T00:20:09;17.80;99.90
2899;DHT22;1459;50.864;6.438;2022-08-19T00:22:36;17.80;99.90
2899;DHT22;1459;50.864;6.438;2022-08-19T00:25:04;17.80;99.90
2899;DHT22;1459;50.864;6.438;2022-08-19T00:27:32;17.70;99.90
2899;DHT22;1459;50.864;6.438;2022-08-19T00:29:59;17.80;99.90
2899;DHT22;1459;50.864;6.438;2022-08-19T00:32:28;17.70;99.90
2899;DHT22;1459;50.864;6.438;2022-08-19T00:34:55;17.70;99.90
2899;DHT22;1459;50.864;6.438;2022-08-19T00:37:24;17.70;99.90
2899;DHT22;1459;50.864;6.438;2022-08-19T00:39:52;17.70;99.90
2899;DHT22;1459;50.864;6.438;2022-08-19T00:42:22;17.70;99.90
2899;DHT22;1459;50.864;6.438;2022-08-19T00:44:49;17.70;99.90
2899;DHT22;1459;50.864;6.438;2022-08-19T00:47:20;17.70;99.90
2899;DHT22;1459;50.864;6.438;2022-08-19T00:49:49;17.70;99.90
2899;DHT22;1459;50.864;6.438;2022-08-19T00:52:20;17.70;99.90
2899;DHT22;1459;50.864;6.438;2022-08-19T00:54:49;17.70;99.90
2899;DHT22;1459;50.864;6.438;2022-08-19T00:57:19;17.70;99.90
2899;DHT22;1459;50.864;6.438;2022-08-19T00:59:52;17.80;99.90
2899;DHT22;1459;50.864;6.438;2022-08-19T01:02:20;17.80;99.90
2899;DHT22;1459;50.864;6.438;2022-08-19T01:04:47;17.70;99.90
2899;DHT22;1459;50.864;6.438;2022-08-19T01:07:14;17.70;99.90
2899;DHT22;1459;50.864;6.438;2022-08-19T01:09:42;17.60;99.90
2899;DHT22;1459;50.864;6.438;2022-08-19T01:12:10;17.50;99.90
2899;DHT22;1459;50.864;6.438;2022-08-19T01:14:39;17.50;99.90
2899;DHT22;1459;50.864;6.438;2022-08-19T01:17:09;17.40;99.90
2899;DHT22;1459;50.864;6.438;2022-08-19T01:19:37;17.40;99.90
2899;DHT22;1459;50.864;6.438;2022-08-19T01:22:10;17.40;99.90
2899;DHT22;1459;50.864;6.438;2022-08-19T01:24:39;17.30;99.90
2899;DHT22;1459;50.864;6.438;2022-08-19T01:27:07;17.30;99.90
2899;DHT22;1459;50.864;6.438;2022-08-19T01:29:37;17.30;99.90
2899;DHT22;1459;50.864;6.438;2022-08-19T01:32:05;17.30;99.90
2899;DHT22;1459;50.864;6.438;2022-08-19T01:34:33;17.30;99.90
2899;DHT22;1459;50.864;6.438;2022-08-19T01:37:01;17.20;99.90
2899;DHT22;1459;50.864;6.438;2022-08-19T01:39:33;17.20;99.90
2899;DHT22;1459;50.864;6.438;2022-08-19T01:42:02;17.20;99.90
2899;DHT22;1459;50.864;6.438;2022-08-19T01:44:30;17.20;99.90
2899;DHT22;1459;50.864;6.438;2022-08-19T01:46:57;17.20;99.90
2899;DHT22;1459;50.864;6.438;2022-08-19T01:49:25;17.20;99.90
2899;DHT22;1459;50.864;6.438;2022-08-19T01:51:54;17.10;99.90
2899;DHT22;1459;50.864;6.438;2022-08-19T01:54:22;17.20;99.90
2899;DHT22;1459;50.864;6.438;2022-08-19T01:56:50;17.10;99.90
2899;DHT22;1459;50.864;6.438;2022-08-19T01:59:21;17.20;99.90
2899;DHT22;1459;50.864;6.438;2022-08-19T02:01:49;17.20;99.90
2899;DHT22;1459;50.864;6.438;2022-08-19T02:04:16;17.20;99.90
2899;DHT22;1459;50.864;6.438;2022-08-19T02:06:43;17.20;99.90
2899;DHT22;1459;50.864;6.438;2022-08-19T02:09:13;17.20;99.90
2899;DHT22;1459;50.864;6.438;2022-08-19T02:11:41;17.10;99.90
2899;DHT22;1459;50.864;6.438;2022-08-19T02:14:09;17.10;99.90
2899;DHT22;1459;50.864;6.438;2022-08-19T02:16:37;17.10;99.90
2899;DHT22;1459;50.864;6.438;2022-08-19T02:19:05;17.10;99.90
2899;DHT22;1459;50.864;6.438;2022-08-19T02:21:33;17.10;99.90
2899;DHT22;1459;50.864;6.438;2022-08-19T02:24:01;17.10;99.90
2899;DHT22;1459;50.864;6.438;2022-08-19T02:26:28;17.10;99.90
2899;DHT22;1459;50.864;6.438;2022-08-19T02:28:55;17.10;99.90
2899;DHT22;1459;50.864;6.438;2022-08-19T02:31:24;17.10;99.90
2899;DHT22;1459;50.864;6.438;2022-08-19T02:33:53;17.00;99.90
2899;DHT22;1459;50.864;6.438;2022-08-19T02:36:21;17.00;99.90
2899;DHT22;1459;50.864;6.438;2022-08-19T02:38:49;17.00;99.90
2899;DHT22;1459;50.864;6.438;2022-08-19T02:41:17;17.00;99.90
2899;DHT22;1459;50.864;6.438;2022-08-19T02:43:45;17.00;99.90
2899;DHT22;1459;50.864;6.438;2022-08-19T02:46:14;16.90;99.90
2899;DHT22;1459;50.864;6.438;2022-08-19T02:48:46;16.80;99.90
2899;DHT22;1459;50.864;6.438;2022-08-19T02:51:18;16.70;99.90
2899;DHT22;1459;50.864;6.438;2022-08-19T02:53:45;16.60;99.90
2899;DHT22;1459;50.864;6.438;2022-08-19T02:56:12;16.50;99.90
2899;DHT22;1459;50.864;6.438;2022-08-19T02:58:40;16.50;99.90
2899;DHT22;1459;50.864;6.438;2022-08-19T03:01:07;16.40;99.90
2899;DHT22;1459;50.864;6.438;2022-08-19T03:03:34;16.40;99.90
2899;DHT22;1459;50.864;6.438;2022-08-19T03:06:10;16.30;99.90
2899;DHT22;1459;50.864;6.438;2022-08-19T03:08:44;16.30;99.90
2899;DHT22;1459;50.864;6.438;2022-08-19T03:11:15;16.30;99.90
2899;DHT22;1459;50.864;6.438;2022-08-19T03:13:43;16.30;99.90
2899;DHT22;1459;50.864;6.438;2022-08-19T03:16:10;16.30;99.90
2899;DHT22;1459;50.864;6.438;2022-08-19T03:18:38;16.40;99.90
2899;DHT22;1459;50.864;6.438;2022-08-19T03:21:05;16.40;99.90
2899;DHT22;1459;50.864;6.438;2022-08-19T03:23:33;16.30;99.90
2899;DHT22;1459;50.864;6.438;2022-08-19T03:26:04;16.20;99.90
2899;DHT22;1459;50.864;6.438;2022-08-19T03:28:32;16.10;99.90
2899;DHT22;1459;50.864;6.438;2022-08-19T03:31:03;16.10;99.90
2899;DHT22;1459;50.864;6.438;2022-08-19T03:33:32;16.00;99.90
2899;DHT22;1459;50.864;6.438;2022-08-19T03:36:01;16.00;99.90
2899;DHT22;1459;50.864;6.438;2022-08-19T03:38:29;16.00;99.90
2899;DHT22;1459;50.864;6.438;2022-08-19T03:40:56;16.00;99.90
2899;DHT22;1459;50.864;6.438;2022-08-19T03:43:24;16.00;99.90
2899;DHT22;1459;50.864;6.438;2022-08-19T03:46:00;16.00;99.90
2899;DHT22;1459;50.864;6.438;2022-08-19T03:48:28;16.10;99.90
2899;DHT22;1459;50.864;6.438;2022-08-19T03:50:56;16.10;99.90
2899;DHT22;1459;50.864;6.438;2022-08-19T03:53:25;16.10;99.90
2899;DHT22;1459;50.864;6.438;2022-08-19T03:55:53;16.20;99.90
2899;DHT22;1459;50.864;6.438;2022-08-19T03:58:20;16.20;99.90
2899;DHT22;1459;50.864;6.438;2022-08-19T04:00:49;16.30;99.90
2899;DHT22;1459;50.864;6.438;2022-08-19T04:03:16;16.40;99.90
2899;DHT22;1459;50.864;6.438;2022-08-19T04:05:44;16.40;99.90
2899;DHT22;1459;50.864;6.438;2022-08-19T04:08:13;16.50;99.90
2899;DHT22;1459;50.864;6.438;2022-08-19T04:10:46;16.50;99.90
2899;DHT22;1459;50.864;6.438;2022-08-19T04:13:14;16.40;99.90
2899;DHT22;1459;50.864;6.438;2022-08-19T04:15:44;16.20;99.90
2899;DHT22;1459;50.864;6.438;2022-08-19T04:18:13;16.20;99.90
2899;DHT22;1459;50.864;6.438;2022-08-19T04:20:42;16.10;99.90
2899;DHT22;1459;50.864;6.438;2022-08-19T04:23:10;16.10;99.90
2899;DHT22;1459;50.864;6.438;2022-08-19T04:25:39;16.00;99.90
2899;DHT22;1459;50.864;6.438;2022-08-19T04:28:06;16.10;99.90
2899;DHT22;1459;50.864;6.438;2022-08-19T04:30:40;16.10;99.90
2899;DHT22;1459;50.864;6.438;2022-08-19T04:33:08;16.20;99.90
2899;DHT22;1459;50.864;6.438;2022-08-19T04:35:38;16.10;99.90
2899;DHT22;1459;50.864;6.438;2022-08-19T04:38:05;16.20;99.90
2899;DHT22;1459;50.864;6.438;2022-08-19T04:40:33;16.20;99.90
2899;DHT22;1459;50.864;6.438;2022-08-19T04:43:18;16.30;99.90
2899;DHT22;1459;50.864;6.438;2022-08-19T04:45:47;16.30;99.90
2899;DHT22;1459;50.864;6.438;2022-08-19T04:48:14;16.20;99.90
2899;DHT22;1459;50.864;6.438;2022-08-19T04:50:43;16.20;99.90
2899;DHT22;1459;50.864;6.438;2022-08-19T04:53:10;16.20;99.90
2899;DHT22;1459;50.864;6.438;2022-08-19T04:55:41;16.20;99.90
2899;DHT22;1459;50.864;6.438;2022-08-19T04:58:09;16.30;99.90
2899;DHT22;1459;50.864;6.438;2022-08-19T05:00:38;16.20;99.90
2899;DHT22;1459;50.864;6.438;2022-08-19T05:03:06;16.30;99.90
2899;DHT22;1459;50.864;6.438;2022-08-19T05:05:33;16.30;99.90
2899;DHT22;1459;50.864;6.438;2022-08-19T05:08:01;16.30;99.90
2899;DHT22;1459;50.864;6.438;2022-08-19T05:10:29;16.40;99.90
2899;DHT22;1459;50.864;6.438;2022-08-19T05:12:56;16.50;99.90
2899;DHT22;1459;50.864;6.438;2022-08-19T05:15:24;16.60;99.90
2899;DHT22;1459;50.864;6.438;2022-08-19T05:17:51;16.70;99.90
2899;DHT22;1459;50.864;6.438;2022-08-19T05:20:37;16.80;99.90
2899;DHT22;1459;50.864;6.438;2022-08-19T05:23:23;17.00;99.90
2899;DHT22;1459;50.864;6.438;2022-08-19T05:25:51;17.10;99.90
2899;DHT22;1459;50.864;6.438;2022-08-19T05:28:18;17.10;99.90
2899;DHT22;1459;50.864;6.438;2022-08-19T05:30:45;17.20;99.90
2899;DHT22;1459;50.864;6.438;2022-08-19T05:33:13;17.30;99.90
2899;DHT22;1459;50.864;6.438;2022-08-19T05:35:40;17.40;99.90
2899;DHT22;1459;50.864;6.438;2022-08-19T05:38:08;17.50;99.90
2899;DHT22;1459;50.864;6.438;2022-08-19T05:40:39;17.60;99.90
2899;DHT22;1459;50.864;6.438;2022-08-19T05:43:07;17.70;99.90
2899;DHT22;1459;50.864;6.438;2022-08-19T05:45:39;17.80;99.90
2899;DHT22;1459;50.864;6.438;2022-08-19T05:48:07;17.90;99.90
2899;DHT22;1459;50.864;6.438;2022-08-19T05:50:36;18.00;99.90
2899;DHT22;1459;50.864;6.438;2022-08-19T05:53:04;18.10;99.90
2899;DHT22;1459;50.864;6.438;2022-08-19T05:55:31;18.10;99.90
2899;DHT22;1459;50.864;6.438;2022-08-19T05:57:59;18.20;99.90
2899;DHT22;1459;50.864;6.438;2022-08-19T06:00:27;18.30;99.90
2899;DHT22;1459;50.864;6.438;2022-08-19T06:02:56;18.30;99.90
2899;DHT22;1459;50.864;6.438;2022-08-19T06:05:25;18.40;99.90
2899;DHT22;1459;50.864;6.438;2022-08-19T06:07:52;18.40;99.90
2899;DHT22;1459;50.864;6.438;2022-08-19T06:10:19;18.40;99.90
2899;DHT22;1459;50.864;6.438;2022-08-19T06:12:47;18.50;99.90
2899;DHT22;1459;50.864;6.438;2022-08-19T06:15:15;18.50;99.90
2899;DHT22;1459;50.864;6.438;2022-08-19T06:17:43;18.50;99.90
2899;DHT22;1459;50.864;6.438;2022-08-19T06:20:13;18.50;99.90
2899;DHT22;1459;50.864;6.438;2022-08-19T06:22:41;18.60;99.90
2899;DHT22;1459;50.864;6.438;2022-08-19T06:25:10;18.50;99.90
2899;DHT22;1459;50.864;6.438;2022-08-19T06:27:37;18.60;99.90
2899;DHT22;1459;50.864;6.438;2022-08-19T06:30:05;18.60;99.90
2899;DHT22;1459;50.864;6.438;2022-08-19T06:32:34;18.70;99.90
2899;DHT22;1459;50.864;6.438;2022-08-19T06:35:01;18.70;99.90
2899;DHT22;1459;50.864;6.438;2022-08-19T06:37:28;18.80;99.90
2899;DHT22;1459;50.864;6.438;2022-08-19T06:39:55;18.80;99.90
2899;DHT22;1459;50.864;6.438;2022-08-19T06:42:22;18.90;99.90
2899;DHT22;1459;50.864;6.438;2022-08-19T06:44:50;19.00;99.90
2899;DHT22;1459;50.864;6.438;2022-08-19T06:47:19;19.00;99.90
2899;DHT22;1459;50.864;6.438;2022-08-19T06:49:48;19.00;99.90
2899;DHT22;1459;50.864;6.438;2022-08-19T06:52:15;19.00;99.90
2899;DHT22;1459;50.864;6.438;2022-08-19T06:54:42;19.00;99.90
2899;DHT22;1459;50.864;6.438;2022-08-19T06:57:10;19.10;99.90
2899;DHT22;1459;50.864;6.438;2022-08-19T06:59:40;19.20;99.90
2899;DHT22;1459;50.864;6.438;2022-08-19T07:02:07;19.30;99.90
2899;DHT22;1459;50.864;6.438;2022-08-19T07:07:08;19.50;99.90
2899;DHT22;1459;50.864;6.438;2022-08-19T07:09:39;19.50;99.90
2899;DHT22;1459;50.864;6.438;2022-08-19T07:12:08;19.60;99.90
2899;DHT22;1459;50.864;6.438;2022-08-19T07:14:36;19.60;99.90
2899;DHT22;1459;50.864;6.438;2022-08-19T07:17:06;19.70;99.90
2899;DHT22;1459;50.864;6.438;2022-08-19T07:19:34;19.80;99.90
2899;DHT22;1459;50.864;6.438;2022-08-19T07:22:05;19.80;99.90
2899;DHT22;1459;50.864;6.438;2022-08-19T07:24:33;19.80;99.90
2899;DHT22;1459;50.864;6.438;2022-08-19T07:27:02;19.70;99.90
2899;DHT22;1459;50.864;6.438;2022-08-19T07:29:32;19.80;99.90
2899;DHT22;1459;50.864;6.438;2022-08-19T07:32:03;19.80;99.90
2899;DHT22;1459;50.864;6.438;2022-08-19T07:34:31;19.80;99.90
2899;DHT22;1459;50.864;6.438;2022-08-19T07:37:00;19.70;99.90
2899;DHT22;1459;50.864;6.438;2022-08-19T07:39:31;19.80;99.90
2899;DHT22;1459;50.864;6.438;2022-08-19T07:42:00;19.90;99.90
2899;DHT22;1459;50.864;6.438;2022-08-19T07:44:27;19.90;99.90
2899;DHT22;1459;50.864;6.438;2022-08-19T07:46:56;20.10;99.90
2899;DHT22;1459;50.864;6.438;2022-08-19T07:49:23;20.10;99.90
2899;DHT22;1459;50.864;6.438;2022-08-19T07:51:54;20.20;99.90
2899;DHT22;1459;50.864;6.438;2022-08-19T07:54:23;20.30;99.90
2899;DHT22;1459;50.864;6.438;2022-08-19T07:56:52;20.40;99.90
2899;DHT22;1459;50.864;6.438;2022-08-19T07:59:20;20.50;99.90
2899;DHT22;1459;50.864;6.438;2022-08-19T08:01:47;20.70;99.90
2899;DHT22;1459;50.864;6.438;2022-08-19T08:07:01;20.80;99.90
2899;DHT22;1459;50.864;6.438;2022-08-19T08:09:46;21.00;99.90
2899;DHT22;1459;50.864;6.438;2022-08-19T08:12:16;21.10;99.90
2899;DHT22;1459;50.864;6.438;2022-08-19T08:17:13;21.20;99.90
2899;DHT22;1459;50.864;6.438;2022-08-19T08:19:41;21.30;99.90
2899;DHT22;1459;50.864;6.438;2022-08-19T08:22:09;21.30;99.90
2899;DHT22;1459;50.864;6.438;2022-08-19T08:25:02;21.40;99.90
2899;DHT22;1459;50.864;6.438;2022-08-19T08:27:31;21.40;99.90
2899;DHT22;1459;50.864;6.438;2022-08-19T08:29:58;21.50;99.90
2899;DHT22;1459;50.864;6.438;2022-08-19T08:32:27;21.60;99.90
2899;DHT22;1459;50.864;6.438;2022-08-19T08:34:55;21.60;99.90
2899;DHT22;1459;50.864;6.438;2022-08-19T08:37:22;21.70;99.90
2899;DHT22;1459;50.864;6.438;2022-08-19T08:39:50;21.70;99.90
2899;DHT22;1459;50.864;6.438;2022-08-19T08:42:22;21.70;99.90
2899;DHT22;1459;50.864;6.438;2022-08-19T08:44:58;21.70;99.90
2899;DHT22;1459;50.864;6.438;2022-08-19T08:47:30;21.70;99.90
2899;DHT22;1459;50.864;6.438;2022-08-19T08:50:05;21.60;99.90
2899;DHT22;1459;50.864;6.438;2022-08-19T08:52:34;21.70;99.90
2899;DHT22;1459;50.864;6.438;2022-08-19T08:55:07;21.70;99.90
2899;DHT22;1459;50.864;6.438;2022-08-19T08:57:39;21.80;99.90
2899;DHT22;1459;50.864;6.438;2022-08-19T09:00:11;21.80;99.90
2899;DHT22;1459;50.864;6.438;2022-08-19T09:02:42;21.90;99.90
2899;DHT22;1459;50.864;6.438;2022-08-19T09:05:09;21.90;99.90
2899;DHT22;1459;50.864;6.438;2022-08-19T09:07:43;21.90;99.90
2899;DHT22;1459;50.864;6.438;2022-08-19T09:10:28;21.90;99.90
2899;DHT22;1459;50.864;6.438;2022-08-19T09:13:03;21.90;99.90
2899;DHT22;1459;50.864;6.438;2022-08-19T09:15:40;21.90;99.90
2899;DHT22;1459;50.864;6.438;2022-08-19T09:18:11;21.90;99.90
2899;DHT22;1459;50.864;6.438;2022-08-19T09:20:38;22.10;99.90
2899;DHT22;1459;50.864;6.438;2022-08-19T09:23:05;22.20;99.90
2899;DHT22;1459;50.864;6.438;2022-08-19T09:25:32;22.20;99.90
2899;DHT22;1459;50.864;6.438;2022-08-19T09:28:00;22.30;99.90
2899;DHT22;1459;50.864;6.438;2022-08-19T09:30:30;22.50;99.90
2899;DHT22;1459;50.864;6.438;2022-08-19T09:32:59;22.60;99.90
2899;DHT22;1459;50.864;6.438;2022-08-19T09:35:29;22.80;99.90
2899;DHT22;1459;50.864;6.438;2022-08-19T09:37:57;22.90;99.90
2899;DHT22;1459;50.864;6.438;2022-08-19T09:40:26;22.80;99.90
2899;DHT22;1459;50.864;6.438;2022-08-19T09:42:54;22.80;99.90
2899;DHT22;1459;50.864;6.438;2022-08-19T09:45:23;22.80;99.90
2899;DHT22;1459;50.864;6.438;2022-08-19T09:47:51;22.80;99.90
2899;DHT22;1459;50.864;6.438;2022-08-19T09:50:22;22.80;99.90
2899;DHT22;1459;50.864;6.438;2022-08-19T09:52:50;22.80;99.90
2899;DHT22;1459;50.864;6.438;2022-08-19T09:55:19;22.90;99.90
2899;DHT22;1459;50.864;6.438;2022-08-19T09:57:46;22.90;99.90
2899;DHT22;1459;50.864;6.438;2022-08-19T10:00:13;22.80;99.90
2899;DHT22;1459;50.864;6.438;2022-08-19T10:02:40;22.80;99.90
2899;DHT22;1459;50.864;6.438;2022-08-19T10:05:08;22.90;99.90
2899;DHT22;1459;50.864;6.438;2022-08-19T10:07:53;23.00;99.90
2899;DHT22;1459;50.864;6.438;2022-08-19T10:10:21;23.00;99.90
2899;DHT22;1459;50.864;6.438;2022-08-19T10:12:48;23.20;99.90
2899;DHT22;1459;50.864;6.438;2022-08-19T10:15:15;23.20;99.90
2899;DHT22;1459;50.864;6.438;2022-08-19T10:17:46;23.20;99.90
2899;DHT22;1459;50.864;6.438;2022-08-19T10:20:13;23.30;99.90
2899;DHT22;1459;50.864;6.438;2022-08-19T10:22:40;23.30;99.90
2899;DHT22;1459;50.864;6.438;2022-08-19T10:25:10;23.30;99.90
2899;DHT22;1459;50.864;6.438;2022-08-19T10:27:42;23.20;99.90
2899;DHT22;1459;50.864;6.438;2022-08-19T10:30:10;23.20;99.90
2899;DHT22;1459;50.864;6.438;2022-08-19T10:32:37;23.10;99.90
2899;DHT22;1459;50.864;6.438;2022-08-19T10:35:06;23.10;99.90
2899;DHT22;1459;50.864;6.438;2022-08-19T10:37:34;23.20;99.90
2899;DHT22;1459;50.864;6.438;2022-08-19T10:40:03;23.10;99.90
2899;DHT22;1459;50.864;6.438;2022-08-19T10:42:32;23.10;99.90
2899;DHT22;1459;50.864;6.438;2022-08-19T10:45:00;23.40;99.90
2899;DHT22;1459;50.864;6.438;2022-08-19T10:49:55;23.80;99.90
2899;DHT22;1459;50.864;6.438;2022-08-19T10:52:40;24.10;99.90
2899;DHT22;1459;50.864;6.438;2022-08-19T10:55:08;24.40;99.90
2899;DHT22;1459;50.864;6.438;2022-08-19T10:57:54;24.50;99.90
2899;DHT22;1459;50.864;6.438;2022-08-19T11:02:49;24.60;99.90
2899;DHT22;1459;50.864;6.438;2022-08-19T11:05:17;24.50;99.90
2899;DHT22;1459;50.864;6.438;2022-08-19T11:07:45;24.70;99.90
2899;DHT22;1459;50.864;6.438;2022-08-19T11:10:13;24.80;99.90
2899;DHT22;1459;50.864;6.438;2022-08-19T11:12:44;24.80;99.90
2899;DHT22;1459;50.864;6.438;2022-08-19T11:15:15;24.70;99.90
2899;DHT22;1459;50.864;6.438;2022-08-19T11:17:42;24.70;99.90
2899;DHT22;1459;50.864;6.438;2022-08-19T11:20:11;24.70;99.90
2899;DHT22;1459;50.864;6.438;2022-08-19T11:22:39;24.70;99.90
2899;DHT22;1459;50.864;6.438;2022-08-19T11:25:07;24.70;99.90
2899;DHT22;1459;50.864;6.438;2022-08-19T11:27:38;24.70;99.90
2899;DHT22;1459;50.864;6.438;2022-08-19T11:30:06;24.70;99.90
2899;DHT22;1459;50.864;6.438;2022-08-19T11:32:35;24.80;99.90
2899;DHT22;1459;50.864;6.438;2022-08-19T11:35:02;24.90;99.90
2899;DHT22;1459;50.864;6.438;2022-08-19T11:37:29;24.90;99.90
2899;DHT22;1459;50.864;6.438;2022-08-19T11:39:57;24.90;99.90
2899;DHT22;1459;50.864;6.438;2022-08-19T11:42:24;24.90;99.90
2899;DHT22;1459;50.864;6.438;2022-08-19T11:45:11;24.90;99.90
2899;DHT22;1459;50.864;6.438;2022-08-19T11:47:40;24.90;99.90
2899;DHT22;1459;50.864;6.438;2022-08-19T11:50:09;24.90;99.90
2899;DHT22;1459;50.864;6.438;2022-08-19T11:52:36;24.90;99.90
2899;DHT22;1459;50.864;6.438;2022-08-19T11:55:04;25.00;99.90
2899;DHT22;1459;50.864;6.438;2022-08-19T11:57:31;25.10;99.90
2899;DHT22;1459;50.864;6.438;2022-08-19T11:59:58;25.10;99.90
2899;DHT22;1459;50.864;6.438;2022-08-19T12:02:27;25.20;99.90
2899;DHT22;1459;50.864;6.438;2022-08-19T12:04:57;25.20;99.90
2899;DHT22;1459;50.864;6.438;2022-08-19T12:07:24;25.30;99.90
2899;DHT22;1459;50.864;6.438;2022-08-19T12:09:51;25.20;99.90
2899;DHT22;1459;50.864;6.438;2022-08-19T12:12:18;25.30;99.90
2899;DHT22;1459;50.864;6.438;2022-08-19T12:14:45;25.30;99.90
2899;DHT22;1459;50.864;6.438;2022-08-19T12:17:13;25.30;99.90
2899;DHT22;1459;50.864;6.438;2022-08-19T12:19:40;25.30;99.90
2899;DHT22;1459;50.864;6.438;2022-08-19T12:22:09;25.30;99.90
2899;DHT22;1459;50.864;6.438;2022-08-19T12:24:36;25.20;99.90
2899;DHT22;1459;50.864;6.438;2022-08-19T12:27:05;25.20;99.90
2899;DHT22;1459;50.864;6.438;2022-08-19T12:29:33;25.30;99.90
2899;DHT22;1459;50.864;6.438;2022-08-19T12:32:00;25.40;99.90
2899;DHT22;1459;50.864;6.438;2022-08-19T12:34:28;25.40;99.90
2899;DHT22;1459;50.864;6.438;2022-08-19T12:36:56;25.50;99.90
2899;DHT22;1459;50.864;6.438;2022-08-19T12:39:25;25.50;99.90
2899;DHT22;1459;50.864;6.438;2022-08-19T12:41:52;25.40;99.90
2899;DHT22;1459;50.864;6.438;2022-08-19T12:44:20;25.40;99.90
2899;DHT22;1459;50.864;6.438;2022-08-19T12:46:47;25.50;99.90
2899;DHT22;1459;50.864;6.438;2022-08-19T12:49:14;25.60;99.90
2899;DHT22;1459;50.864;6.438;2022-08-19T12:51:42;25.70;99.90
2899;DHT22;1459;50.864;6.438;2022-08-19T12:56:38;26.00;99.90
2899;DHT22;1459;50.864;6.438;2022-08-19T12:59:05;26.00;99.90
2899;DHT22;1459;50.864;6.438;2022-08-19T13:01:34;26.10;99.90
2899;DHT22;1459;50.864;6.438;2022-08-19T13:04:04;26.10;99.90
2899;DHT22;1459;50.864;6.438;2022-08-19T13:06:31;26.10;99.90
2899;DHT22;1459;50.864;6.438;2022-08-19T13:08:58;26.20;99.90
2899;DHT22;1459;50.864;6.438;2022-08-19T13:11:25;26.10;99.90
2899;DHT22;1459;50.864;6.438;2022-08-19T13:13:55;26.20;99.90
2899;DHT22;1459;50.864;6.438;2022-08-19T13:16:22;26.30;99.90
2899;DHT22;1459;50.864;6.438;2022-08-19T13:18:50;26.30;99.90
2899;DHT22;1459;50.864;6.438;2022-08-19T13:21:23;26.30;99.90
2899;DHT22;1459;50.864;6.438;2022-08-19T13:23:51;26.40;99.90
2899;DHT22;1459;50.864;6.438;2022-08-19T13:36:46;26.60;99.90
2899;DHT22;1459;50.864;6.438;2022-08-19T13:39:13;26.30;99.90
2899;DHT22;1459;50.864;6.438;2022-08-19T13:41:45;26.20;99.90
2899;DHT22;1459;50.864;6.438;2022-08-19T13:44:13;26.30;99.90
2899;DHT22;1459;50.864;6.438;2022-08-19T13:46:42;26.30;99.90
2899;DHT22;1459;50.864;6.438;2022-08-19T13:49:11;26.40;99.90
2899;DHT22;1459;50.864;6.438;2022-08-19T13:51:38;26.40;99.90
2899;DHT22;1459;50.864;6.438;2022-08-19T13:54:06;26.30;99.90
2899;DHT22;1459;50.864;6.438;2022-08-19T13:56:34;26.30;99.90
2899;DHT22;1459;50.864;6.438;2022-08-19T13:59:02;26.50;99.90
2899;DHT22;1459;50.864;6.438;2022-08-19T14:01:29;26.60;99.90
2899;DHT22;1459;50.864;6.438;2022-08-19T14:03:57;26.60;99.90
2899;DHT22;1459;50.864;6.438;2022-08-19T14:06:24;26.60;99.90
2899;DHT22;1459;50.864;6.438;2022-08-19T14:08:51;26.60;99.90
2899;DHT22;1459;50.864;6.438;2022-08-19T14:11:19;26.60;99.90
2899;DHT22;1459;50.864;6.438;2022-08-19T14:13:50;26.70;99.90
2899;DHT22;1459;50.864;6.438;2022-08-19T14:16:17;26.70;99.90
2899;DHT22;1459;50.864;6.438;2022-08-19T14:18:44;26.80;99.90
2899;DHT22;1459;50.864;6.438;2022-08-19T14:21:18;26.90;99.90
2899;DHT22;1459;50.864;6.438;2022-08-19T14:23:46;26.90;99.90
2899;DHT22;1459;50.864;6.438;2022-08-19T14:26:15;26.90;99.90
2899;DHT22;1459;50.864;6.438;2022-08-19T14:28:43;27.00;99.90
2899;DHT22;1459;50.864;6.438;2022-08-19T14:33:38;27.10;99.90
2899;DHT22;1459;50.864;6.438;2022-08-19T14:38:34;28.00;99.90
2899;DHT22;1459;50.864;6.438;2022-08-19T14:41:10;28.20;99.90
2899;DHT22;1459;50.864;6.438;2022-08-19T14:43:38;28.40;99.90
2899;DHT22;1459;50.864;6.438;2022-08-19T14:46:06;28.30;99.90
2899;DHT22;1459;50.864;6.438;2022-08-19T14:48:35;28.30;99.90
2899;DHT22;1459;50.864;6.438;2022-08-19T14:51:04;28.00;99.90
2899;DHT22;1459;50.864;6.438;2022-08-19T14:53:32;27.90;99.90
2899;DHT22;1459;50.864;6.438;2022-08-19T14:56:01;27.90;99.90
2899;DHT22;1459;50.864;6.438;2022-08-19T14:58:33;28.10;99.90
2899;DHT22;1459;50.864;6.438;2022-08-19T15:01:00;28.30;99.90
2899;DHT22;1459;50.864;6.438;2022-08-19T15:03:29;28.30;99.90
2899;DHT22;1459;50.864;6.438;2022-08-19T15:05:57;28.40;99.90
2899;DHT22;1459;50.864;6.438;2022-08-19T15:08:27;28.50;99.90
2899;DHT22;1459;50.864;6.438;2022-08-19T15:10:55;28.20;99.90
2899;DHT22;1459;50.864;6.438;2022-08-19T15:13:24;28.00;99.90
2899;DHT22;1459;50.864;6.438;2022-08-19T15:15:52;28.00;99.90
2899;DHT22;1459;50.864;6.438;2022-08-19T15:18:19;27.90;99.90
2899;DHT22;1459;50.864;6.438;2022-08-19T15:20:47;27.80;99.90
2899;DHT22;1459;50.864;6.438;2022-08-19T15:23:14;27.80;99.90
2899;DHT22;1459;50.864;6.438;2022-08-19T15:25:42;27.80;99.90
2899;DHT22;1459;50.864;6.438;2022-08-19T15:28:10;27.80;99.90
2899;DHT22;1459;50.864;6.438;2022-08-19T15:30:40;27.60;99.90
2899;DHT22;1459;50.864;6.438;2022-08-19T15:33:10;27.30;99.90
2899;DHT22;1459;50.864;6.438;2022-08-19T15:35:39;27.20;99.90
2899;DHT22;1459;50.864;6.438;2022-08-19T15:38:08;27.00;99.90
2899;DHT22;1459;50.864;6.438;2022-08-19T15:40:36;26.80;99.90
2899;DHT22;1459;50.864;6.438;2022-08-19T15:43:03;26.60;99.90
2899;DHT22;1459;50.864;6.438;2022-08-19T15:45:30;26.50;99.90
2899;DHT22;1459;50.864;6.438;2022-08-19T15:48:00;26.40;99.90
2899;DHT22;1459;50.864;6.438;2022-08-19T15:50:28;26.40;99.90
2899;DHT22;1459;50.864;6.438;2022-08-19T15:52:58;26.40;99.90
2899;DHT22;1459;50.864;6.438;2022-08-19T15:55:29;26.30;99.90
2899;DHT22;1459;50.864;6.438;2022-08-19T15:57:57;26.20;99.90
2899;DHT22;1459;50.864;6.438;2022-08-19T16:00:41;26.10;99.90
2899;DHT22;1459;50.864;6.438;2022-08-19T16:03:28;26.00;99.90
2899;DHT22;1459;50.864;6.438;2022-08-19T16:06:12;25.80;99.90
2899;DHT22;1459;50.864;6.438;2022-08-19T16:08:51;25.80;99.90
2899;DHT22;1459;50.864;6.438;2022-08-19T16:11:20;25.70;99.90
2899;DHT22;1459;50.864;6.438;2022-08-19T16:13:48;25.60;99.90
2899;DHT22;1459;50.864;6.438;2022-08-19T16:16:16;25.60;99.90
2899;DHT22;1459;50.864;6.438;2022-08-19T16:18:45;25.60;99.90
2899;DHT22;1459;50.864;6.438;2022-08-19T16:21:13;25.60;99.90
2899;DHT22;1459;50.864;6.438;2022-08-19T16:23:42;25.60;99.90
2899;DHT22;1459;50.864;6.438;2022-08-19T16:26:10;25.60;99.90
2899;DHT22;1459;50.864;6.438;2022-08-19T16:28:37;25.60;99.90
2899;DHT22;1459;50.864;6.438;2022-08-19T16:31:05;25.60;99.90
2899;DHT22;1459;50.864;6.438;2022-08-19T16:33:32;25.60;99.90
2899;DHT22;1459;50.864;6.438;2022-08-19T16:36:01;25.60;99.90
2899;DHT22;1459;50.864;6.438;2022-08-19T16:38:28;25.60;99.90
2899;DHT22;1459;50.864;6.438;2022-08-19T16:40:55;25.60;99.90
2899;DHT22;1459;50.864;6.438;2022-08-19T16:43:26;25.60;99.90